sensor_id;sensor_type;location;lat;lon;timestamp;temperature;humidity
39325;DHT22;25037;49.488;9.900;2024-02-04T00:01:58;10.60;71.70
39325;DHT22;25037;49.488;9.900;2024-02-04T00:04:25;10.60;71.70
39325;DHT22;25037;49.488;9.900;2024-02-04T00:06:52;10.70;71.70
39325;DHT22;25037;49.488;9.900;2024-02-04T00:09:20;10.70;71.70
39325;DHT22;25037;49.488;9.900;2024-02-04T00:11:47;10.70;71.70
39325;DHT22;25037;49.488;9.900;2024-02-04T00:14:15;10.70;71.70
39325;DHT22;25037;49.488;9.900;2024-02-04T00:16:42;10.70;71.70
39325;DHT22;25037;49.488;9.900;2024-02-04T00:19:09;10.70;71.70
39325;DHT22;25037;49.488;9.900;2024-02-04T00:21:36;10.70;71.70
39325;DHT22;25037;49.488;9.900;2024-02-04T00:24:03;10.70;71.80
39325;DHT22;25037;49.488;9.900;2024-02-04T00:26:31;10.70;71.80
39325;DHT22;25037;49.488;9.900;2024-02-04T00:28:58;10.60;71.90
39325;DHT22;25037;49.488;9.900;2024-02-04T00:31:25;10.60;71.90
39325;DHT22;25037;49.488;9.900;2024-02-04T00:33:52;10.60;72.00
39325;DHT22;25037;49.488;9.900;2024-02-04T00:36:20;10.60;72.00
39325;DHT22;25037;49.488;9.900;2024-02-04T00:38:48;10.60;72.20
39325;DHT22;25037;49.488;9.900;2024-02-04T00:41:15;10.60;72.20
39325;DHT22;25037;49.488;9.900;2024-02-04T00:43:42;10.60;72.20
39325;DHT22;25037;49.488;9.900;2024-02-04T00:46:10;10.50;72.30
39325;DHT22;25037;49.488;9.900;2024-02-04T00:48:37;10.50;72.40
39325;DHT22;25037;49.488;9.900;2024-02-04T00:51:04;10.50;72.40
39325;DHT22;25037;49.488;9.900;2024-02-04T00:53:32;10.50;72.40
39325;DHT22;25037;49.488;9.900;2024-02-04T00:56:03;10.50;72.40
39325;DHT22;25037;49.488;9.900;2024-02-04T00:58:31;10.50;72.50
39325;DHT22;25037;49.488;9.900;2024-02-04T01:00:58;10.50;72.60
39325;DHT22;25037;49.488;9.900;2024-02-04T01:03:26;10.40;72.70
39325;DHT22;25037;49.488;9.900;2024-02-04T01:05:53;10.40;72.80
39325;DHT22;25037;49.488;9.900;2024-02-04T01:08:22;10.40;72.90
39325;DHT22;25037;49.488;9.900;2024-02-04T01:10:49;10.40;72.90
39325;DHT22;25037;49.488;9.900;2024-02-04T01:13:20;10.40;73.00
39325;DHT22;25037;49.488;9.900;2024-02-04T01:15:47;10.40;73.10
39325;DHT22;25037;49.488;9.900;2024-02-04T01:18:15;10.30;73.10
39325;DHT22;25037;49.488;9.900;2024-02-04T01:20:42;10.40;73.20
39325;DHT22;25037;49.488;9.900;2024-02-04T01:23:09;10.30;73.20
39325;DHT22;25037;49.488;9.900;2024-02-04T01:25:36;10.30;73.30
39325;DHT22;25037;49.488;9.900;2024-02-04T01:28:07;10.30;73.30
39325;DHT22;25037;49.488;9.900;2024-02-04T01:30:34;10.30;73.40
39325;DHT22;25037;49.488;9.900;2024-02-04T01:33:01;10.30;73.50
39325;DHT22;25037;49.488;9.900;2024-02-04T01:35:29;10.20;73.50
39325;DHT22;25037;49.488;9.900;2024-02-04T01:37:56;10.30;73.60
39325;DHT22;25037;49.488;9.900;2024-02-04T01:40:23;10.20;73.70
39325;DHT22;25037;49.488;9.900;2024-02-04T01:42:50;10.20;73.70
39325;DHT22;25037;49.488;9.900;2024-02-04T01:45:17;10.20;73.70
39325;DHT22;25037;49.488;9.900;2024-02-04T01:47:45;10.20;73.80
39325;DHT22;25037;49.488;9.900;2024-02-04T01:50:12;10.10;73.90
39325;DHT22;25037;49.488;9.900;2024-02-04T01:52:42;10.20;73.90
39325;DHT22;25037;49.488;9.900;2024-02-04T01:55:10;10.20;73.90
39325;DHT22;25037;49.488;9.900;2024-02-04T01:57:39;10.20;73.90
39325;DHT22;25037;49.488;9.900;2024-02-04T02:00:07;10.10;73.80
39325;DHT22;25037;49.488;9.900;2024-02-04T02:02:40;10.20;73.80
39325;DHT22;25037;49.488;9.900;2024-02-04T02:05:08;10.20;73.80
39325;DHT22;25037;49.488;9.900;2024-02-04T02:07:37;10.20;73.80
39325;DHT22;25037;49.488;9.900;2024-02-04T02:10:04;10.20;73.80
39325;DHT22;25037;49.488;9.900;2024-02-04T02:12:59;10.20;73.80
39325;DHT22;25037;49.488;9.900;2024-02-04T02:15:31;10.20;73.80
39325;DHT22;25037;49.488;9.900;2024-02-04T02:26:42;10.20;73.80
39325;DHT22;25037;49.488;9.900;2024-02-04T02:29:10;10.10;73.80
39325;DHT22;25037;49.488;9.900;2024-02-04T02:31:37;10.20;73.80
39325;DHT22;25037;49.488;9.900;2024-02-04T02:34:14;10.20;73.70
39325;DHT22;25037;49.488;9.900;2024-02-04T02:36:50;10.20;73.70
39325;DHT22;25037;49.488;9.900;2024-02-04T02:39:25;10.20;73.70
39325;DHT22;25037;49.488;9.900;2024-02-04T02:41:57;10.20;73.70
39325;DHT22;25037;49.488;9.900;2024-02-04T02:44:26;10.20;73.70
39325;DHT22;25037;49.488;9.900;2024-02-04T02:46:57;10.20;73.70
39325;DHT22;25037;49.488;9.900;2024-02-04T02:49:25;10.20;73.70
39325;DHT22;25037;49.488;9.900;2024-02-04T02:51:53;10.20;73.70
39325;DHT22;25037;49.488;9.900;2024-02-04T02:54:20;10.20;73.60
39325;DHT22;25037;49.488;9.900;2024-02-04T02:56:48;10.30;73.60
39325;DHT22;25037;49.488;9.900;2024-02-04T02:59:15;10.30;73.50
39325;DHT22;25037;49.488;9.900;2024-02-04T03:01:42;10.30;73.40
39325;DHT22;25037;49.488;9.900;2024-02-04T03:04:09;10.30;73.30
39325;DHT22;25037;49.488;9.900;2024-02-04T03:06:36;10.40;73.20
39325;DHT22;25037;49.488;9.900;2024-02-04T03:09:03;10.30;73.20
39325;DHT22;25037;49.488;9.900;2024-02-04T03:11:31;10.30;73.20
39325;DHT22;25037;49.488;9.900;2024-02-04T03:13:57;10.30;73.20
39325;DHT22;25037;49.488;9.900;2024-02-04T03:16:25;10.30;73.30
39325;DHT22;25037;49.488;9.900;2024-02-04T03:18:53;10.30;73.30
39325;DHT22;25037;49.488;9.900;2024-02-04T03:21:20;10.30;73.30
39325;DHT22;25037;49.488;9.900;2024-02-04T03:23:49;10.30;73.30
39325;DHT22;25037;49.488;9.900;2024-02-04T03:26:19;10.30;73.20
39325;DHT22;25037;49.488;9.900;2024-02-04T03:28:46;10.30;73.30
39325;DHT22;25037;49.488;9.900;2024-02-04T03:31:20;10.30;73.40
39325;DHT22;25037;49.488;9.900;2024-02-04T03:33:48;10.30;73.50
39325;DHT22;25037;49.488;9.900;2024-02-04T03:36:20;10.20;73.50
39325;DHT22;25037;49.488;9.900;2024-02-04T03:38:48;10.20;73.50
39325;DHT22;25037;49.488;9.900;2024-02-04T03:41:16;10.20;73.60
39325;DHT22;25037;49.488;9.900;2024-02-04T03:43:43;10.20;73.60
39325;DHT22;25037;49.488;9.900;2024-02-04T03:46:14;10.20;73.60
39325;DHT22;25037;49.488;9.900;2024-02-04T03:48:43;10.20;73.70
39325;DHT22;25037;49.488;9.900;2024-02-04T03:51:17;10.20;73.70
39325;DHT22;25037;49.488;9.900;2024-02-04T03:53:45;10.20;73.70
39325;DHT22;25037;49.488;9.900;2024-02-04T03:56:12;10.20;73.70
39325;DHT22;25037;49.488;9.900;2024-02-04T03:58:40;10.10;73.80
39325;DHT22;25037;49.488;9.900;2024-02-04T04:01:10;10.10;73.80
39325;DHT22;25037;49.488;9.900;2024-02-04T04:03:42;10.10;73.90
39325;DHT22;25037;49.488;9.900;2024-02-04T04:06:10;10.10;73.90
39325;DHT22;25037;49.488;9.900;2024-02-04T04:08:38;10.10;73.90
39325;DHT22;25037;49.488;9.900;2024-02-04T04:11:08;10.10;73.90
39325;DHT22;25037;49.488;9.900;2024-02-04T04:13:37;10.10;73.90
39325;DHT22;25037;49.488;9.900;2024-02-04T04:16:05;10.10;73.90
39325;DHT22;25037;49.488;9.900;2024-02-04T04:18:33;10.10;74.00
39325;DHT22;25037;49.488;9.900;2024-02-04T04:21:01;10.10;73.90
39325;DHT22;25037;49.488;9.900;2024-02-04T04:23:29;10.10;74.00
39325;DHT22;25037;49.488;9.900;2024-02-04T04:25:56;10.10;74.00
39325;DHT22;25037;49.488;9.900;2024-02-04T04:28:23;10.10;74.00
39325;DHT22;25037;49.488;9.900;2024-02-04T04:30:51;10.10;74.10
39325;DHT22;25037;49.488;9.900;2024-02-04T04:33:18;10.00;74.10
39325;DHT22;25037;49.488;9.900;2024-02-04T04:35:46;10.00;74.20
39325;DHT22;25037;49.488;9.900;2024-02-04T04:38:12;10.00;74.20
39325;DHT22;25037;49.488;9.900;2024-02-04T04:40:39;10.00;74.20
39325;DHT22;25037;49.488;9.900;2024-02-04T04:43:07;10.00;74.20
39325;DHT22;25037;49.488;9.900;2024-02-04T04:45:34;10.00;74.20
39325;DHT22;25037;49.488;9.900;2024-02-04T04:48:01;10.00;74.20
39325;DHT22;25037;49.488;9.900;2024-02-04T04:50:29;10.00;74.30
39325;DHT22;25037;49.488;9.900;2024-02-04T04:52:57;10.00;74.30
39325;DHT22;25037;49.488;9.900;2024-02-04T04:55:24;9.90;74.30
39325;DHT22;25037;49.488;9.900;2024-02-04T04:57:51;9.90;74.30
39325;DHT22;25037;49.488;9.900;2024-02-04T05:00:19;9.90;74.30
39325;DHT22;25037;49.488;9.900;2024-02-04T05:02:57;10.00;74.30
39325;DHT22;25037;49.488;9.900;2024-02-04T05:05:27;10.00;74.30
39325;DHT22;25037;49.488;9.900;2024-02-04T05:07:59;9.90;74.30
39325;DHT22;25037;49.488;9.900;2024-02-04T05:10:29;9.90;74.30
39325;DHT22;25037;49.488;9.900;2024-02-04T05:12:56;10.00;74.30
39325;DHT22;25037;49.488;9.900;2024-02-04T05:15:25;10.00;74.30
39325;DHT22;25037;49.488;9.900;2024-02-04T05:17:58;10.00;74.30
39325;DHT22;25037;49.488;9.900;2024-02-04T05:20:27;9.90;74.30
39325;DHT22;25037;49.488;9.900;2024-02-04T05:22:58;9.90;74.40
39325;DHT22;25037;49.488;9.900;2024-02-04T05:25:26;9.90;74.40
39325;DHT22;25037;49.488;9.900;2024-02-04T05:27:53;9.90;74.40
39325;DHT22;25037;49.488;9.900;2024-02-04T05:30:20;9.90;74.40
39325;DHT22;25037;49.488;9.900;2024-02-04T05:32:49;9.90;74.50
39325;DHT22;25037;49.488;9.900;2024-02-04T05:35:16;9.90;74.50
39325;DHT22;25037;49.488;9.900;2024-02-04T05:37:44;9.90;74.50
39325;DHT22;25037;49.488;9.900;2024-02-04T05:40:20;9.80;74.50
39325;DHT22;25037;49.488;9.900;2024-02-04T05:42:51;9.90;74.60
39325;DHT22;25037;49.488;9.900;2024-02-04T05:45:30;9.90;74.50
39325;DHT22;25037;49.488;9.900;2024-02-04T05:47:57;9.80;74.60
39325;DHT22;25037;49.488;9.900;2024-02-04T05:50:26;9.90;74.60
39325;DHT22;25037;49.488;9.900;2024-02-04T05:52:54;9.80;74.60
39325;DHT22;25037;49.488;9.900;2024-02-04T05:55:23;9.80;74.60
39325;DHT22;25037;49.488;9.900;2024-02-04T05:57:51;9.90;74.60
39325;DHT22;25037;49.488;9.900;2024-02-04T06:00:18;9.80;74.60
39325;DHT22;25037;49.488;9.900;2024-02-04T06:02:48;9.80;74.60
39325;DHT22;25037;49.488;9.900;2024-02-04T06:05:18;9.90;74.50
39325;DHT22;25037;49.488;9.900;2024-02-04T06:07:48;9.90;74.50
39325;DHT22;25037;49.488;9.900;2024-02-04T06:10:24;9.90;74.50
39325;DHT22;25037;49.488;9.900;2024-02-04T06:12:54;9.80;74.40
39325;DHT22;25037;49.488;9.900;2024-02-04T06:15:23;9.90;74.40
39325;DHT22;25037;49.488;9.900;2024-02-04T06:17:53;9.90;74.40
39325;DHT22;25037;49.488;9.900;2024-02-04T06:20:23;9.90;74.40
39325;DHT22;25037;49.488;9.900;2024-02-04T06:22:53;9.90;74.40
39325;DHT22;25037;49.488;9.900;2024-02-04T06:25:21;9.90;74.30
39325;DHT22;25037;49.488;9.900;2024-02-04T06:27:49;9.80;74.30
39325;DHT22;25037;49.488;9.900;2024-02-04T06:30:24;9.90;74.30
39325;DHT22;25037;49.488;9.900;2024-02-04T06:32:51;9.80;74.30
39325;DHT22;25037;49.488;9.900;2024-02-04T06:35:23;9.80;74.30
39325;DHT22;25037;49.488;9.900;2024-02-04T06:37:50;9.80;74.40
39325;DHT22;25037;49.488;9.900;2024-02-04T06:40:27;9.80;74.40
39325;DHT22;25037;49.488;9.900;2024-02-04T06:43:00;9.80;74.40
39325;DHT22;25037;49.488;9.900;2024-02-04T06:45:29;9.80;74.50
39325;DHT22;25037;49.488;9.900;2024-02-04T06:48:01;9.80;74.50
39325;DHT22;25037;49.488;9.900;2024-02-04T06:50:29;9.80;74.60
39325;DHT22;25037;49.488;9.900;2024-02-04T06:52:56;9.80;74.60
39325;DHT22;25037;49.488;9.900;2024-02-04T06:55:23;9.80;74.60
39325;DHT22;25037;49.488;9.900;2024-02-04T06:57:53;9.80;74.60
39325;DHT22;25037;49.488;9.900;2024-02-04T07:00:24;9.70;74.60
39325;DHT22;25037;49.488;9.900;2024-02-04T07:02:51;9.80;74.60
39325;DHT22;25037;49.488;9.900;2024-02-04T07:05:18;9.80;74.60
39325;DHT22;25037;49.488;9.900;2024-02-04T07:07:50;9.80;74.60
39325;DHT22;25037;49.488;9.900;2024-02-04T07:10:18;9.80;74.50
39325;DHT22;25037;49.488;9.900;2024-02-04T07:12:48;9.80;74.50
39325;DHT22;25037;49.488;9.900;2024-02-04T07:15:19;9.80;74.50
39325;DHT22;25037;49.488;9.900;2024-02-04T07:17:46;9.80;74.40
39325;DHT22;25037;49.488;9.900;2024-02-04T07:20:14;9.80;74.40
39325;DHT22;25037;49.488;9.900;2024-02-04T07:22:41;9.80;74.40
39325;DHT22;25037;49.488;9.900;2024-02-04T07:25:11;9.80;74.40
39325;DHT22;25037;49.488;9.900;2024-02-04T07:27:51;9.80;74.30
39325;DHT22;25037;49.488;9.900;2024-02-04T07:30:19;9.80;74.30
39325;DHT22;25037;49.488;9.900;2024-02-04T07:32:47;9.80;74.30
39325;DHT22;25037;49.488;9.900;2024-02-04T07:35:22;9.90;74.30
39325;DHT22;25037;49.488;9.900;2024-02-04T07:37:55;9.90;74.20
39325;DHT22;25037;49.488;9.900;2024-02-04T07:40:29;9.90;74.20
39325;DHT22;25037;49.488;9.900;2024-02-04T07:43:00;9.90;74.10
39325;DHT22;25037;49.488;9.900;2024-02-04T07:45:27;9.90;74.10
39325;DHT22;25037;49.488;9.900;2024-02-04T07:47:54;9.90;74.10
39325;DHT22;25037;49.488;9.900;2024-02-04T07:50:27;10.00;74.00
39325;DHT22;25037;49.488;9.900;2024-02-04T07:52:54;10.00;74.00
39325;DHT22;25037;49.488;9.900;2024-02-04T07:55:21;10.00;74.00
39325;DHT22;25037;49.488;9.900;2024-02-04T07:57:49;10.00;73.90
39325;DHT22;25037;49.488;9.900;2024-02-04T08:00:16;10.00;73.90
39325;DHT22;25037;49.488;9.900;2024-02-04T08:02:47;10.00;73.80
39325;DHT22;25037;49.488;9.900;2024-02-04T08:05:20;10.00;73.80
39325;DHT22;25037;49.488;9.900;2024-02-04T08:07:47;10.00;73.80
39325;DHT22;25037;49.488;9.900;2024-02-04T08:10:15;10.10;73.80
39325;DHT22;25037;49.488;9.900;2024-02-04T08:12:43;10.10;73.70
39325;DHT22;25037;49.488;9.900;2024-02-04T08:15:17;10.10;73.70
39325;DHT22;25037;49.488;9.900;2024-02-04T08:17:45;10.10;73.70
39325;DHT22;25037;49.488;9.900;2024-02-04T08:20:18;10.20;73.60
39325;DHT22;25037;49.488;9.900;2024-02-04T08:22:47;10.20;73.60
39325;DHT22;25037;49.488;9.900;2024-02-04T08:25:14;10.10;73.60
39325;DHT22;25037;49.488;9.900;2024-02-04T08:27:44;10.20;73.50
39325;DHT22;25037;49.488;9.900;2024-02-04T08:30:12;10.20;73.50
39325;DHT22;25037;49.488;9.900;2024-02-04T08:32:40;10.30;73.50
39325;DHT22;25037;49.488;9.900;2024-02-04T08:35:11;10.30;73.40
39325;DHT22;25037;49.488;9.900;2024-02-04T08:37:39;10.40;73.30
39325;DHT22;25037;49.488;9.900;2024-02-04T08:40:09;10.40;73.30
39325;DHT22;25037;49.488;9.900;2024-02-04T08:42:40;10.40;73.20
39325;DHT22;25037;49.488;9.900;2024-02-04T08:45:08;10.40;73.20
39325;DHT22;25037;49.488;9.900;2024-02-04T08:47:38;10.50;73.20
39325;DHT22;25037;49.488;9.900;2024-02-04T08:50:08;10.50;73.20
39325;DHT22;25037;49.488;9.900;2024-02-04T08:52:35;10.50;73.20
39325;DHT22;25037;49.488;9.900;2024-02-04T08:55:14;10.50;73.10
39325;DHT22;25037;49.488;9.900;2024-02-04T08:57:49;10.60;73.10
39325;DHT22;25037;49.488;9.900;2024-02-04T09:00:19;10.60;73.10
39325;DHT22;25037;49.488;9.900;2024-02-04T09:02:54;10.70;73.00
39325;DHT22;25037;49.488;9.900;2024-02-04T09:05:30;10.70;72.90
39325;DHT22;25037;49.488;9.900;2024-02-04T09:08:00;10.70;72.90
39325;DHT22;25037;49.488;9.900;2024-02-04T09:10:28;10.70;72.90
39325;DHT22;25037;49.488;9.900;2024-02-04T09:12:59;10.70;72.90
39325;DHT22;25037;49.488;9.900;2024-02-04T09:15:29;10.70;72.90
39325;DHT22;25037;49.488;9.900;2024-02-04T09:17:59;10.70;72.90
39325;DHT22;25037;49.488;9.900;2024-02-04T09:20:27;10.80;72.90
39325;DHT22;25037;49.488;9.900;2024-02-04T09:22:56;10.80;72.90
39325;DHT22;25037;49.488;9.900;2024-02-04T09:25:24;10.80;72.80
39325;DHT22;25037;49.488;9.900;2024-02-04T09:27:52;11.00;72.70
39325;DHT22;25037;49.488;9.900;2024-02-04T09:30:29;11.20;72.60
39325;DHT22;25037;49.488;9.900;2024-02-04T09:32:56;11.20;72.40
39325;DHT22;25037;49.488;9.900;2024-02-04T09:35:28;11.30;72.30
39325;DHT22;25037;49.488;9.900;2024-02-04T09:38:04;11.30;72.20
39325;DHT22;25037;49.488;9.900;2024-02-04T09:40:40;11.40;72.10
39325;DHT22;25037;49.488;9.900;2024-02-04T09:43:07;11.40;72.10
39325;DHT22;25037;49.488;9.900;2024-02-04T09:45:35;11.50;72.00
39325;DHT22;25037;49.488;9.900;2024-02-04T09:48:03;11.70;71.90
39325;DHT22;25037;49.488;9.900;2024-02-04T09:50:31;11.80;71.60
39325;DHT22;25037;49.488;9.900;2024-02-04T09:52:59;11.80;71.50
39325;DHT22;25037;49.488;9.900;2024-02-04T09:55:29;12.00;71.30
39325;DHT22;25037;49.488;9.900;2024-02-04T09:58:03;12.00;71.20
39325;DHT22;25037;49.488;9.900;2024-02-04T10:00:33;12.10;71.00
39325;DHT22;25037;49.488;9.900;2024-02-04T10:03:02;12.10;70.80
39325;DHT22;25037;49.488;9.900;2024-02-04T10:05:34;12.10;70.70
39325;DHT22;25037;49.488;9.900;2024-02-04T10:08:01;12.10;70.70
39325;DHT22;25037;49.488;9.900;2024-02-04T10:10:32;12.00;70.50
39325;DHT22;25037;49.488;9.900;2024-02-04T10:13:09;12.00;70.50
39325;DHT22;25037;49.488;9.900;2024-02-04T10:15:36;12.00;70.50
39325;DHT22;25037;49.488;9.900;2024-02-04T10:18:04;12.00;70.60
39325;DHT22;25037;49.488;9.900;2024-02-04T10:20:33;12.00;70.50
39325;DHT22;25037;49.488;9.900;2024-02-04T10:23:02;12.00;70.50
39325;DHT22;25037;49.488;9.900;2024-02-04T10:25:29;12.00;70.60
39325;DHT22;25037;49.488;9.900;2024-02-04T10:28:00;12.00;70.50
39325;DHT22;25037;49.488;9.900;2024-02-04T10:30:29;12.00;70.50
39325;DHT22;25037;49.488;9.900;2024-02-04T10:32:56;11.90;70.40
39325;DHT22;25037;49.488;9.900;2024-02-04T10:35:26;12.00;70.50
39325;DHT22;25037;49.488;9.900;2024-02-04T10:37:54;12.00;70.30
39325;DHT22;25037;49.488;9.900;2024-02-04T10:40:28;11.90;70.10
39325;DHT22;25037;49.488;9.900;2024-02-04T10:43:07;11.80;70.10
39325;DHT22;25037;49.488;9.900;2024-02-04T10:45:39;11.80;70.10
39325;DHT22;25037;49.488;9.900;2024-02-04T10:48:19;11.80;70.00
39325;DHT22;25037;49.488;9.900;2024-02-04T10:50:49;11.90;69.90
39325;DHT22;25037;49.488;9.900;2024-02-04T10:53:22;11.90;69.80
39325;DHT22;25037;49.488;9.900;2024-02-04T10:55:52;11.80;69.80
39325;DHT22;25037;49.488;9.900;2024-02-04T10:58:23;11.80;69.90
39325;DHT22;25037;49.488;9.900;2024-02-04T11:00:52;11.80;69.90
39325;DHT22;25037;49.488;9.900;2024-02-04T11:03:21;11.80;69.80
39325;DHT22;25037;49.488;9.900;2024-02-04T11:05:51;11.80;69.70
39325;DHT22;25037;49.488;9.900;2024-02-04T11:08:18;11.80;69.80
39325;DHT22;25037;49.488;9.900;2024-02-04T11:10:45;11.80;69.70
39325;DHT22;25037;49.488;9.900;2024-02-04T11:13:12;11.80;69.60
39325;DHT22;25037;49.488;9.900;2024-02-04T11:15:40;11.90;69.60
39325;DHT22;25037;49.488;9.900;2024-02-04T11:24:20;12.10;69.20
39325;DHT22;25037;49.488;9.900;2024-02-04T11:26:53;12.10;69.10
39325;DHT22;25037;49.488;9.900;2024-02-04T11:29:20;12.10;69.10
39325;DHT22;25037;49.488;9.900;2024-02-04T11:31:48;12.20;68.90
39325;DHT22;25037;49.488;9.900;2024-02-04T11:34:16;12.20;69.00
39325;DHT22;25037;49.488;9.900;2024-02-04T11:36:43;12.20;69.00
39325;DHT22;25037;49.488;9.900;2024-02-04T11:39:12;12.10;69.00
39325;DHT22;25037;49.488;9.900;2024-02-04T11:41:47;12.10;69.00
39325;DHT22;25037;49.488;9.900;2024-02-04T11:44:25;12.10;69.00
39325;DHT22;25037;49.488;9.900;2024-02-04T11:46:55;12.10;68.90
39325;DHT22;25037;49.488;9.900;2024-02-04T11:49:25;12.10;68.90
39325;DHT22;25037;49.488;9.900;2024-02-04T11:51:53;12.10;68.90
39325;DHT22;25037;49.488;9.900;2024-02-04T11:54:21;12.00;68.80
39325;DHT22;25037;49.488;9.900;2024-02-04T11:56:50;12.00;68.80
39325;DHT22;25037;49.488;9.900;2024-02-04T11:59:23;12.00;68.80
39325;DHT22;25037;49.488;9.900;2024-02-04T12:01:55;12.00;68.90
39325;DHT22;25037;49.488;9.900;2024-02-04T12:04:23;12.00;68.80
39325;DHT22;25037;49.488;9.900;2024-02-04T12:06:51;12.00;68.70
39325;DHT22;25037;49.488;9.900;2024-02-04T12:09:19;12.00;68.70
39325;DHT22;25037;49.488;9.900;2024-02-04T12:11:46;12.10;68.60
39325;DHT22;25037;49.488;9.900;2024-02-04T12:14:14;12.10;68.40
39325;DHT22;25037;49.488;9.900;2024-02-04T12:16:42;12.20;68.30
39325;DHT22;25037;49.488;9.900;2024-02-04T12:19:09;12.30;68.30
39325;DHT22;25037;49.488;9.900;2024-02-04T12:21:37;12.30;68.20
39325;DHT22;25037;49.488;9.900;2024-02-04T12:24:04;12.30;68.10
39325;DHT22;25037;49.488;9.900;2024-02-04T12:26:31;12.30;68.10
39325;DHT22;25037;49.488;9.900;2024-02-04T12:28:58;12.40;68.00
39325;DHT22;25037;49.488;9.900;2024-02-04T12:31:26;12.30;68.00
39325;DHT22;25037;49.488;9.900;2024-02-04T12:34:01;12.30;67.90
39325;DHT22;25037;49.488;9.900;2024-02-04T12:36:32;12.30;67.90
39325;DHT22;25037;49.488;9.900;2024-02-04T12:39:01;12.30;68.10
39325;DHT22;25037;49.488;9.900;2024-02-04T12:41:30;12.20;68.10
39325;DHT22;25037;49.488;9.900;2024-02-04T12:43:58;12.10;68.20
39325;DHT22;25037;49.488;9.900;2024-02-04T12:46:27;12.10;68.20
39325;DHT22;25037;49.488;9.900;2024-02-04T12:48:55;12.10;68.20
39325;DHT22;25037;49.488;9.900;2024-02-04T12:51:32;12.00;68.20
39325;DHT22;25037;49.488;9.900;2024-02-04T12:54:08;12.00;68.20
39325;DHT22;25037;49.488;9.900;2024-02-04T12:57:02;11.90;68.30
39325;DHT22;25037;49.488;9.900;2024-02-04T12:59:31;11.80;68.30
39325;DHT22;25037;49.488;9.900;2024-02-04T13:02:03;11.70;68.50
39325;DHT22;25037;49.488;9.900;2024-02-04T13:04:40;11.70;68.70
39325;DHT22;25037;49.488;9.900;2024-02-04T13:07:13;11.60;68.80
39325;DHT22;25037;49.488;9.900;2024-02-04T13:09:41;11.60;68.90
39325;DHT22;25037;49.488;9.900;2024-02-04T13:12:09;11.60;68.90
39325;DHT22;25037;49.488;9.900;2024-02-04T13:14:37;11.60;69.00
39325;DHT22;25037;49.488;9.900;2024-02-04T13:17:05;11.60;69.10
39325;DHT22;25037;49.488;9.900;2024-02-04T13:19:39;11.50;69.20
39325;DHT22;25037;49.488;9.900;2024-02-04T13:22:06;11.50;69.30
39325;DHT22;25037;49.488;9.900;2024-02-04T13:24:34;11.40;69.40
39325;DHT22;25037;49.488;9.900;2024-02-04T13:27:01;11.40;69.50
39325;DHT22;25037;49.488;9.900;2024-02-04T13:29:30;11.40;69.60
39325;DHT22;25037;49.488;9.900;2024-02-04T13:31:57;11.30;69.60
39325;DHT22;25037;49.488;9.900;2024-02-04T13:34:24;11.30;69.60
39325;DHT22;25037;49.488;9.900;2024-02-04T13:36:51;11.30;69.70
39325;DHT22;25037;49.488;9.900;2024-02-04T13:39:19;11.30;69.70
39325;DHT22;25037;49.488;9.900;2024-02-04T13:41:46;11.30;69.70
39325;DHT22;25037;49.488;9.900;2024-02-04T13:44:13;11.20;69.70
39325;DHT22;25037;49.488;9.900;2024-02-04T13:46:40;11.30;69.80
39325;DHT22;25037;49.488;9.900;2024-02-04T13:49:10;11.30;69.80
39325;DHT22;25037;49.488;9.900;2024-02-04T13:51:39;11.20;69.80
39325;DHT22;25037;49.488;9.900;2024-02-04T13:54:11;11.30;69.90
39325;DHT22;25037;49.488;9.900;2024-02-04T13:56:46;11.30;70.00
39325;DHT22;25037;49.488;9.900;2024-02-04T13:59:13;11.20;70.00
39325;DHT22;25037;49.488;9.900;2024-02-04T14:01:40;11.30;70.20
39325;DHT22;25037;49.488;9.900;2024-02-04T14:04:07;11.30;70.30
39325;DHT22;25037;49.488;9.900;2024-02-04T14:06:35;11.20;70.30
39325;DHT22;25037;49.488;9.900;2024-02-04T14:09:02;11.20;70.40
39325;DHT22;25037;49.488;9.900;2024-02-04T14:11:30;11.20;70.50
39325;DHT22;25037;49.488;9.900;2024-02-04T14:13:57;11.30;70.60
39325;DHT22;25037;49.488;9.900;2024-02-04T14:16:24;11.20;70.60
39325;DHT22;25037;49.488;9.900;2024-02-04T14:18:52;11.30;70.70
39325;DHT22;25037;49.488;9.900;2024-02-04T14:21:23;11.30;70.70
39325;DHT22;25037;49.488;9.900;2024-02-04T14:23:50;11.30;70.80
39325;DHT22;25037;49.488;9.900;2024-02-04T14:26:20;11.30;70.80
39325;DHT22;25037;49.488;9.900;2024-02-04T14:28:48;11.30;70.90
39325;DHT22;25037;49.488;9.900;2024-02-04T14:31:15;11.30;70.90
39325;DHT22;25037;49.488;9.900;2024-02-04T14:33:43;11.30;71.00
39325;DHT22;25037;49.488;9.900;2024-02-04T14:36:10;11.30;71.00
39325;DHT22;25037;49.488;9.900;2024-02-04T14:38:37;11.30;71.00
39325;DHT22;25037;49.488;9.900;2024-02-04T14:41:06;11.30;71.00
39325;DHT22;25037;49.488;9.900;2024-02-04T14:43:34;11.30;71.00
39325;DHT22;25037;49.488;9.900;2024-02-04T14:46:01;11.40;71.10
39325;DHT22;25037;49.488;9.900;2024-02-04T14:48:29;11.40;71.00
39325;DHT22;25037;49.488;9.900;2024-02-04T14:50:56;11.40;71.10
39325;DHT22;25037;49.488;9.900;2024-02-04T14:53:26;11.40;71.10
39325;DHT22;25037;49.488;9.900;2024-02-04T14:55:53;11.40;71.10
39325;DHT22;25037;49.488;9.900;2024-02-04T14:58:23;11.40;71.10
39325;DHT22;25037;49.488;9.900;2024-02-04T15:00:50;11.40;71.10
39325;DHT22;25037;49.488;9.900;2024-02-04T15:03:18;11.40;71.10
39325;DHT22;25037;49.488;9.900;2024-02-04T15:05:44;11.40;71.10
39325;DHT22;25037;49.488;9.900;2024-02-04T15:08:12;11.50;71.10
39325;DHT22;25037;49.488;9.900;2024-02-04T15:10:38;11.40;71.10
39325;DHT22;25037;49.488;9.900;2024-02-04T15:13:06;11.40;71.10
39325;DHT22;25037;49.488;9.900;2024-02-04T15:15:34;11.40;71.10
39325;DHT22;25037;49.488;9.900;2024-02-04T15:18:01;11.40;71.00
39325;DHT22;25037;49.488;9.900;2024-02-04T15:20:29;11.40;71.00
39325;DHT22;25037;49.488;9.900;2024-02-04T15:22:58;11.40;71.00
39325;DHT22;25037;49.488;9.900;2024-02-04T15:25:28;11.40;71.10
39325;DHT22;25037;49.488;9.900;2024-02-04T15:27:56;11.30;71.10
39325;DHT22;25037;49.488;9.900;2024-02-04T15:30:23;11.30;71.10
39325;DHT22;25037;49.488;9.900;2024-02-04T15:32:51;11.30;71.10
39325;DHT22;25037;49.488;9.900;2024-02-04T15:35:20;11.30;71.10
39325;DHT22;25037;49.488;9.900;2024-02-04T15:37:47;11.30;71.10
39325;DHT22;25037;49.488;9.900;2024-02-04T15:40:13;11.30;71.20
39325;DHT22;25037;49.488;9.900;2024-02-04T15:42:41;11.30;71.30
39325;DHT22;25037;49.488;9.900;2024-02-04T15:45:09;11.30;71.40
39325;DHT22;25037;49.488;9.900;2024-02-04T15:47:40;11.20;71.50
39325;DHT22;25037;49.488;9.900;2024-02-04T15:50:11;11.20;71.60
39325;DHT22;25037;49.488;9.900;2024-02-04T15:52:38;11.20;71.60
39325;DHT22;25037;49.488;9.900;2024-02-04T15:55:06;11.10;71.70
39325;DHT22;25037;49.488;9.900;2024-02-04T15:57:34;11.20;71.70
39325;DHT22;25037;49.488;9.900;2024-02-04T16:00:06;11.10;71.70